sensor_id;sensor_type;location;lat;lon;timestamp;P1;durP1;ratioP1;P2;durP2;ratioP2
46284;SDS011;32018;59.182;18.148;2022-10-16T00:01:28;13.73;;;12.85;;
46284;SDS011;32018;59.182;18.148;2022-10-16T00:03:57;13.40;;;12.45;;
46284;SDS011;32018;59.182;18.148;2022-10-16T00:06:23;14.27;;;13.30;;
46284;SDS011;32018;59.182;18.148;2022-10-16T00:08:48;14.98;;;14.07;;
46284;SDS011;32018;59.182;18.148;2022-10-16T00:11:19;14.27;;;13.45;;
46284;SDS011;32018;59.182;18.148;2022-10-16T00:13:45;12.55;;;11.68;;
46284;SDS011;32018;59.182;18.148;2022-10-16T00:16:11;14.40;;;13.50;;
46284;SDS011;32018;59.182;18.148;2022-10-16T00:18:37;12.70;;;11.80;;
46284;SDS011;32018;59.182;18.148;2022-10-16T00:21:10;13.38;;;12.48;;
46284;SDS011;32018;59.182;18.148;2022-10-16T00:23:37;13.25;;;12.45;;
46284;SDS011;32018;59.182;18.148;2022-10-16T00:26:04;15.65;;;14.48;;
46284;SDS011;32018;59.182;18.148;2022-10-16T00:28:30;14.10;;;13.20;;
46284;SDS011;32018;59.182;18.148;2022-10-16T00:30:55;13.48;;;12.57;;
46284;SDS011;32018;59.182;18.148;2022-10-16T00:33:21;13.02;;;12.23;;
46284;SDS011;32018;59.182;18.148;2022-10-16T00:35:46;13.52;;;12.63;;
46284;SDS011;32018;59.182;18.148;2022-10-16T00:38:12;12.82;;;11.88;;
46284;SDS011;32018;59.182;18.148;2022-10-16T00:40:37;13.18;;;12.38;;
46284;SDS011;32018;59.182;18.148;2022-10-16T00:43:04;13.88;;;12.98;;
46284;SDS011;32018;59.182;18.148;2022-10-16T00:45:29;14.25;;;13.35;;
46284;SDS011;32018;59.182;18.148;2022-10-16T00:47:55;13.80;;;13.00;;
46284;SDS011;32018;59.182;18.148;2022-10-16T00:52:48;13.52;;;12.63;;
46284;SDS011;32018;59.182;18.148;2022-10-16T00:55:14;13.57;;;12.77;;
46284;SDS011;32018;59.182;18.148;2022-10-16T00:57:40;13.43;;;12.52;;
46284;SDS011;32018;59.182;18.148;2022-10-16T01:00:07;13.02;;;12.20;;
46284;SDS011;32018;59.182;18.148;2022-10-16T01:02:33;13.98;;;13.02;;
46284;SDS011;32018;59.182;18.148;2022-10-16T01:04:58;13.82;;;12.82;;
46284;SDS011;32018;59.182;18.148;2022-10-16T01:07:26;13.48;;;12.57;;
46284;SDS011;32018;59.182;18.148;2022-10-16T01:10:06;12.45;;;11.50;;
46284;SDS011;32018;59.182;18.148;2022-10-16T01:12:50;12.82;;;12.02;;
46284;SDS011;32018;59.182;18.148;2022-10-16T01:15:26;13.25;;;12.00;;
46284;SDS011;32018;59.182;18.148;2022-10-16T01:20:31;12.32;;;11.52;;
46284;SDS011;32018;59.182;18.148;2022-10-16T01:28:09;12.40;;;11.60;;
46284;SDS011;32018;59.182;18.148;2022-10-16T01:30:37;13.25;;;12.27;;
46284;SDS011;32018;59.182;18.148;2022-10-16T01:33:04;12.65;;;11.75;;
46284;SDS011;32018;59.182;18.148;2022-10-16T01:38:16;12.55;;;11.70;;
46284;SDS011;32018;59.182;18.148;2022-10-16T01:40:45;13.00;;;11.88;;
46284;SDS011;32018;59.182;18.148;2022-10-16T01:43:12;12.50;;;11.70;;
46284;SDS011;32018;59.182;18.148;2022-10-16T01:45:39;12.52;;;11.73;;
46284;SDS011;32018;59.182;18.148;2022-10-16T01:48:06;16.23;;;15.02;;
46284;SDS011;32018;59.182;18.148;2022-10-16T01:50:35;12.50;;;11.60;;
46284;SDS011;32018;59.182;18.148;2022-10-16T01:53:01;13.75;;;12.75;;
46284;SDS011;32018;59.182;18.148;2022-10-16T01:55:28;13.82;;;12.93;;
46284;SDS011;32018;59.182;18.148;2022-10-16T01:57:55;15.48;;;14.27;;
46284;SDS011;32018;59.182;18.148;2022-10-16T02:00:21;13.00;;;12.10;;
46284;SDS011;32018;59.182;18.148;2022-10-16T02:02:48;13.52;;;12.70;;
46284;SDS011;32018;59.182;18.148;2022-10-16T02:07:58;14.63;;;13.52;;
46284;SDS011;32018;59.182;18.148;2022-10-16T02:10:23;13.45;;;12.00;;
46284;SDS011;32018;59.182;18.148;2022-10-16T02:13:11;13.50;;;12.65;;
46284;SDS011;32018;59.182;18.148;2022-10-16T02:15:35;15.38;;;14.27;;
46284;SDS011;32018;59.182;18.148;2022-10-16T02:18:01;12.98;;;12.07;;
46284;SDS011;32018;59.182;18.148;2022-10-16T02:20:28;13.73;;;12.82;;
46284;SDS011;32018;59.182;18.148;2022-10-16T02:22:54;14.23;;;13.23;;
46284;SDS011;32018;59.182;18.148;2022-10-16T02:27:53;11.07;;;10.38;;
46284;SDS011;32018;59.182;18.148;2022-10-16T02:32:46;12.63;;;11.65;;
46284;SDS011;32018;59.182;18.148;2022-10-16T02:35:13;12.20;;;11.23;;
46284;SDS011;32018;59.182;18.148;2022-10-16T02:37:39;11.10;;;10.30;;
46284;SDS011;32018;59.182;18.148;2022-10-16T02:40:05;10.45;;;9.75;;
46284;SDS011;32018;59.182;18.148;2022-10-16T02:42:36;11.52;;;10.80;;
46284;SDS011;32018;59.182;18.148;2022-10-16T02:45:02;10.38;;;9.77;;
46284;SDS011;32018;59.182;18.148;2022-10-16T02:47:27;9.68;;;9.05;;
46284;SDS011;32018;59.182;18.148;2022-10-16T02:49:53;10.15;;;9.45;;
46284;SDS011;32018;59.182;18.148;2022-10-16T02:52:18;10.18;;;9.48;;
46284;SDS011;32018;59.182;18.148;2022-10-16T02:54:43;10.38;;;9.68;;
46284;SDS011;32018;59.182;18.148;2022-10-16T02:57:09;8.60;;;7.97;;
46284;SDS011;32018;59.182;18.148;2022-10-16T02:59:34;8.85;;;8.35;;
46284;SDS011;32018;59.182;18.148;2022-10-16T03:01:59;8.40;;;7.90;;
46284;SDS011;32018;59.182;18.148;2022-10-16T03:04:24;9.25;;;8.65;;
46284;SDS011;32018;59.182;18.148;2022-10-16T03:06:50;8.15;;;7.57;;
46284;SDS011;32018;59.182;18.148;2022-10-16T03:09:15;9.27;;;8.68;;
46284;SDS011;32018;59.182;18.148;2022-10-16T03:11:40;8.48;;;7.97;;
46284;SDS011;32018;59.182;18.148;2022-10-16T03:14:06;8.68;;;7.97;;
46284;SDS011;32018;59.182;18.148;2022-10-16T03:16:31;7.45;;;6.95;;
46284;SDS011;32018;59.182;18.148;2022-10-16T03:18:56;7.38;;;6.88;;
46284;SDS011;32018;59.182;18.148;2022-10-16T03:21:22;7.97;;;7.38;;
46284;SDS011;32018;59.182;18.148;2022-10-16T03:23:47;8.10;;;7.63;;
46284;SDS011;32018;59.182;18.148;2022-10-16T03:26:13;7.75;;;7.25;;
46284;SDS011;32018;59.182;18.148;2022-10-16T03:28:38;7.72;;;7.22;;
46284;SDS011;32018;59.182;18.148;2022-10-16T03:31:03;7.32;;;6.93;;
46284;SDS011;32018;59.182;18.148;2022-10-16T03:33:29;7.40;;;6.90;;
46284;SDS011;32018;59.182;18.148;2022-10-16T03:35:54;8.40;;;7.80;;
46284;SDS011;32018;59.182;18.148;2022-10-16T03:38:20;8.27;;;7.57;;
46284;SDS011;32018;59.182;18.148;2022-10-16T03:40:45;6.65;;;6.25;;
46284;SDS011;32018;59.182;18.148;2022-10-16T03:43:11;6.10;;;5.72;;
46284;SDS011;32018;59.182;18.148;2022-10-16T03:45:36;6.38;;;5.97;;
46284;SDS011;32018;59.182;18.148;2022-10-16T03:48:01;7.03;;;6.53;;
46284;SDS011;32018;59.182;18.148;2022-10-16T03:50:28;6.05;;;5.65;;
46284;SDS011;32018;59.182;18.148;2022-10-16T03:52:53;8.40;;;5.93;;
46284;SDS011;32018;59.182;18.148;2022-10-16T03:55:19;6.75;;;6.25;;
46284;SDS011;32018;59.182;18.148;2022-10-16T03:57:44;6.32;;;5.70;;
46284;SDS011;32018;59.182;18.148;2022-10-16T04:00:09;6.70;;;6.30;;
46284;SDS011;32018;59.182;18.148;2022-10-16T04:02:35;6.57;;;6.07;;
46284;SDS011;32018;59.182;18.148;2022-10-16T04:05:00;6.43;;;6.07;;
46284;SDS011;32018;59.182;18.148;2022-10-16T04:07:26;6.18;;;5.65;;
46284;SDS011;32018;59.182;18.148;2022-10-16T04:09:51;6.30;;;5.80;;
46284;SDS011;32018;59.182;18.148;2022-10-16T04:12:17;6.60;;;6.10;;
46284;SDS011;32018;59.182;18.148;2022-10-16T04:14:42;5.80;;;5.40;;
46284;SDS011;32018;59.182;18.148;2022-10-16T04:17:07;4.90;;;4.50;;
46284;SDS011;32018;59.182;18.148;2022-10-16T04:19:33;6.45;;;5.93;;
46284;SDS011;32018;59.182;18.148;2022-10-16T04:21:58;5.93;;;5.45;;
46284;SDS011;32018;59.182;18.148;2022-10-16T04:24:23;5.60;;;5.20;;
46284;SDS011;32018;59.182;18.148;2022-10-16T04:26:49;5.95;;;5.63;;
46284;SDS011;32018;59.182;18.148;2022-10-16T04:29:14;5.70;;;5.30;;
46284;SDS011;32018;59.182;18.148;2022-10-16T04:31:39;5.70;;;5.35;;
46284;SDS011;32018;59.182;18.148;2022-10-16T04:34:05;5.60;;;5.28;;
46284;SDS011;32018;59.182;18.148;2022-10-16T04:36:30;5.30;;;4.95;;
46284;SDS011;32018;59.182;18.148;2022-10-16T04:38:55;5.80;;;5.40;;
46284;SDS011;32018;59.182;18.148;2022-10-16T04:41:21;4.63;;;4.32;;
46284;SDS011;32018;59.182;18.148;2022-10-16T04:43:46;5.20;;;4.80;;
46284;SDS011;32018;59.182;18.148;2022-10-16T04:46:12;7.55;;;4.38;;
46284;SDS011;32018;59.182;18.148;2022-10-16T04:48:37;4.78;;;4.38;;
46284;SDS011;32018;59.182;18.148;2022-10-16T04:51:03;5.40;;;5.00;;
46284;SDS011;32018;59.182;18.148;2022-10-16T04:53:28;4.70;;;4.40;;
46284;SDS011;32018;59.182;18.148;2022-10-16T04:55:54;5.68;;;5.28;;
46284;SDS011;32018;59.182;18.148;2022-10-16T04:58:19;5.28;;;4.97;;
46284;SDS011;32018;59.182;18.148;2022-10-16T05:00:44;9.40;;;4.85;;
46284;SDS011;32018;59.182;18.148;2022-10-16T05:03:11;4.70;;;4.30;;
46284;SDS011;32018;59.182;18.148;2022-10-16T05:05:36;5.45;;;5.05;;
46284;SDS011;32018;59.182;18.148;2022-10-16T05:08:02;5.55;;;5.15;;
46284;SDS011;32018;59.182;18.148;2022-10-16T05:10:27;4.90;;;4.53;;
46284;SDS011;32018;59.182;18.148;2022-10-16T05:12:53;5.38;;;4.47;;
46284;SDS011;32018;59.182;18.148;2022-10-16T05:15:18;4.95;;;4.55;;
46284;SDS011;32018;59.182;18.148;2022-10-16T05:17:44;5.68;;;5.07;;
46284;SDS011;32018;59.182;18.148;2022-10-16T05:20:10;5.40;;;5.00;;
46284;SDS011;32018;59.182;18.148;2022-10-16T05:22:35;5.25;;;4.78;;
46284;SDS011;32018;59.182;18.148;2022-10-16T05:25:00;5.88;;;5.47;;
46284;SDS011;32018;59.182;18.148;2022-10-16T05:27:26;5.90;;;5.40;;
46284;SDS011;32018;59.182;18.148;2022-10-16T05:29:51;5.40;;;5.07;;
46284;SDS011;32018;59.182;18.148;2022-10-16T05:32:17;8.40;;;5.22;;
46284;SDS011;32018;59.182;18.148;2022-10-16T05:34:43;6.15;;;5.75;;
46284;SDS011;32018;59.182;18.148;2022-10-16T05:37:09;5.90;;;5.50;;
46284;SDS011;32018;59.182;18.148;2022-10-16T05:39:35;6.45;;;5.95;;
46284;SDS011;32018;59.182;18.148;2022-10-16T05:42:02;6.05;;;5.55;;
46284;SDS011;32018;59.182;18.148;2022-10-16T05:44:27;6.30;;;5.85;;
46284;SDS011;32018;59.182;18.148;2022-10-16T05:46:52;6.55;;;6.05;;
46284;SDS011;32018;59.182;18.148;2022-10-16T05:49:18;7.18;;;6.47;;
46284;SDS011;32018;59.182;18.148;2022-10-16T05:51:43;6.90;;;6.38;;
46284;SDS011;32018;59.182;18.148;2022-10-16T05:54:08;7.55;;;7.15;;
46284;SDS011;32018;59.182;18.148;2022-10-16T05:56:34;7.63;;;7.13;;
46284;SDS011;32018;59.182;18.148;2022-10-16T05:58:59;7.43;;;6.93;;
46284;SDS011;32018;59.182;18.148;2022-10-16T06:01:24;8.73;;;8.18;;
46284;SDS011;32018;59.182;18.148;2022-10-16T06:03:50;11.43;;;10.70;;
46284;SDS011;32018;59.182;18.148;2022-10-16T06:06:17;12.30;;;11.52;;
46284;SDS011;32018;59.182;18.148;2022-10-16T06:08:43;9.77;;;8.85;;
46284;SDS011;32018;59.182;18.148;2022-10-16T06:11:11;12.43;;;11.45;;
46284;SDS011;32018;59.182;18.148;2022-10-16T06:13:37;8.75;;;8.15;;
46284;SDS011;32018;59.182;18.148;2022-10-16T06:16:03;11.00;;;10.02;;
46284;SDS011;32018;59.182;18.148;2022-10-16T06:18:29;12.35;;;11.43;;
46284;SDS011;32018;59.182;18.148;2022-10-16T06:20:55;11.65;;;10.95;;
46284;SDS011;32018;59.182;18.148;2022-10-16T06:23:21;9.73;;;9.10;;
46284;SDS011;32018;59.182;18.148;2022-10-16T06:25:46;12.35;;;11.55;;
46284;SDS011;32018;59.182;18.148;2022-10-16T06:28:13;8.38;;;7.88;;
46284;SDS011;32018;59.182;18.148;2022-10-16T06:30:38;8.32;;;7.72;;
46284;SDS011;32018;59.182;18.148;2022-10-16T06:33:03;9.27;;;8.60;;
46284;SDS011;32018;59.182;18.148;2022-10-16T06:35:29;10.10;;;9.50;;
46284;SDS011;32018;59.182;18.148;2022-10-16T06:37:54;10.40;;;9.73;;
46284;SDS011;32018;59.182;18.148;2022-10-16T06:40:19;8.25;;;7.75;;
46284;SDS011;32018;59.182;18.148;2022-10-16T06:42:45;10.88;;;10.18;;
46284;SDS011;32018;59.182;18.148;2022-10-16T06:45:10;11.73;;;10.98;;
46284;SDS011;32018;59.182;18.148;2022-10-16T06:47:36;11.23;;;10.20;;
46284;SDS011;32018;59.182;18.148;2022-10-16T06:50:01;12.35;;;11.55;;
46284;SDS011;32018;59.182;18.148;2022-10-16T06:52:29;11.50;;;10.80;;
46284;SDS011;32018;59.182;18.148;2022-10-16T06:54:54;12.15;;;11.32;;
46284;SDS011;32018;59.182;18.148;2022-10-16T06:57:20;11.75;;;10.95;;
46284;SDS011;32018;59.182;18.148;2022-10-16T06:59:45;12.93;;;12.02;;
46284;SDS011;32018;59.182;18.148;2022-10-16T07:02:11;13.60;;;12.70;;
46284;SDS011;32018;59.182;18.148;2022-10-16T07:04:36;12.57;;;11.75;;
46284;SDS011;32018;59.182;18.148;2022-10-16T07:07:02;12.85;;;12.02;;
46284;SDS011;32018;59.182;18.148;2022-10-16T07:09:27;13.40;;;12.50;;
46284;SDS011;32018;59.182;18.148;2022-10-16T07:11:52;15.48;;;14.38;;
46284;SDS011;32018;59.182;18.148;2022-10-16T07:14:19;13.48;;;12.68;;
46284;SDS011;32018;59.182;18.148;2022-10-16T07:16:45;13.93;;;12.93;;
46284;SDS011;32018;59.182;18.148;2022-10-16T07:19:10;11.85;;;11.07;;
46284;SDS011;32018;59.182;18.148;2022-10-16T07:21:37;14.55;;;13.15;;
46284;SDS011;32018;59.182;18.148;2022-10-16T07:24:03;12.10;;;11.32;;
46284;SDS011;32018;59.182;18.148;2022-10-16T07:26:30;11.55;;;10.70;;
46284;SDS011;32018;59.182;18.148;2022-10-16T07:28:55;13.23;;;12.27;;
46284;SDS011;32018;59.182;18.148;2022-10-16T07:31:22;11.82;;;10.82;;
46284;SDS011;32018;59.182;18.148;2022-10-16T07:33:48;10.88;;;10.18;;
46284;SDS011;32018;59.182;18.148;2022-10-16T07:36:14;8.43;;;7.90;;
46284;SDS011;32018;59.182;18.148;2022-10-16T07:38:39;10.95;;;10.15;;
46284;SDS011;32018;59.182;18.148;2022-10-16T07:41:06;9.63;;;8.93;;
46284;SDS011;32018;59.182;18.148;2022-10-16T07:43:32;8.85;;;8.25;;
46284;SDS011;32018;59.182;18.148;2022-10-16T07:45:58;8.00;;;7.60;;
46284;SDS011;32018;59.182;18.148;2022-10-16T07:48:24;8.48;;;7.78;;
46284;SDS011;32018;59.182;18.148;2022-10-16T07:50:51;7.53;;;7.03;;
46284;SDS011;32018;59.182;18.148;2022-10-16T07:53:17;6.85;;;6.35;;
46284;SDS011;32018;59.182;18.148;2022-10-16T07:55:42;7.63;;;7.03;;
46284;SDS011;32018;59.182;18.148;2022-10-16T07:58:08;7.50;;;6.95;;
46284;SDS011;32018;59.182;18.148;2022-10-16T08:00:33;6.55;;;6.05;;
46284;SDS011;32018;59.182;18.148;2022-10-16T08:02:59;6.90;;;6.50;;
46284;SDS011;32018;59.182;18.148;2022-10-16T08:05:28;7.32;;;6.72;;
46284;SDS011;32018;59.182;18.148;2022-10-16T08:07:53;6.55;;;6.13;;
46284;SDS011;32018;59.182;18.148;2022-10-16T08:10:19;6.28;;;5.88;;
46284;SDS011;32018;59.182;18.148;2022-10-16T08:12:45;5.88;;;5.47;;
46284;SDS011;32018;59.182;18.148;2022-10-16T08:15:10;6.70;;;6.10;;
46284;SDS011;32018;59.182;18.148;2022-10-16T08:17:36;6.53;;;6.13;;
46284;SDS011;32018;59.182;18.148;2022-10-16T08:20:02;6.05;;;5.65;;
46284;SDS011;32018;59.182;18.148;2022-10-16T08:22:27;6.72;;;6.22;;
46284;SDS011;32018;59.182;18.148;2022-10-16T08:24:53;6.97;;;6.47;;
46284;SDS011;32018;59.182;18.148;2022-10-16T08:27:18;6.00;;;5.60;;
46284;SDS011;32018;59.182;18.148;2022-10-16T08:29:43;6.53;;;6.13;;
46284;SDS011;32018;59.182;18.148;2022-10-16T08:32:09;6.70;;;5.75;;
46284;SDS011;32018;59.182;18.148;2022-10-16T08:34:34;5.38;;;5.05;;
46284;SDS011;32018;59.182;18.148;2022-10-16T08:36:59;5.63;;;5.22;;
46284;SDS011;32018;59.182;18.148;2022-10-16T08:39:25;5.32;;;4.93;;
46284;SDS011;32018;59.182;18.148;2022-10-16T08:49:12;5.15;;;4.75;;
46284;SDS011;32018;59.182;18.148;2022-10-16T08:51:39;5.03;;;4.57;;
46284;SDS011;32018;59.182;18.148;2022-10-16T08:54:06;5.18;;;4.78;;
46284;SDS011;32018;59.182;18.148;2022-10-16T08:56:34;5.47;;;4.88;;
46284;SDS011;32018;59.182;18.148;2022-10-16T08:58:59;4.57;;;4.28;;
46284;SDS011;32018;59.182;18.148;2022-10-16T09:01:28;6.30;;;4.43;;
46284;SDS011;32018;59.182;18.148;2022-10-16T09:17:12;5.22;;;4.93;;
46284;SDS011;32018;59.182;18.148;2022-10-16T09:19:40;4.20;;;3.78;;
46284;SDS011;32018;59.182;18.148;2022-10-16T09:22:10;4.63;;;4.32;;
46284;SDS011;32018;59.182;18.148;2022-10-16T09:24:37;3.90;;;3.60;;
46284;SDS011;32018;59.182;18.148;2022-10-16T09:27:03;5.07;;;4.72;;
46284;SDS011;32018;59.182;18.148;2022-10-16T09:29:28;4.05;;;3.75;;
46284;SDS011;32018;59.182;18.148;2022-10-16T09:31:53;4.32;;;4.03;;
46284;SDS011;32018;59.182;18.148;2022-10-16T09:34:36;4.65;;;4.32;;
46284;SDS011;32018;59.182;18.148;2022-10-16T09:37:03;5.07;;;4.68;;
46284;SDS011;32018;59.182;18.148;2022-10-16T09:39:29;3.97;;;3.67;;
46284;SDS011;32018;59.182;18.148;2022-10-16T09:41:54;4.18;;;3.88;;
46284;SDS011;32018;59.182;18.148;2022-10-16T09:44:27;3.95;;;3.65;;
46284;SDS011;32018;59.182;18.148;2022-10-16T09:47:01;3.92;;;3.58;;
46284;SDS011;32018;59.182;18.148;2022-10-16T09:49:26;3.75;;;3.55;;
46284;SDS011;32018;59.182;18.148;2022-10-16T09:54:36;3.72;;;3.22;;
46284;SDS011;32018;59.182;18.148;2022-10-16T09:57:05;5.78;;;3.70;;
46284;SDS011;32018;59.182;18.148;2022-10-16T09:59:30;3.25;;;3.05;;
46284;SDS011;32018;59.182;18.148;2022-10-16T10:01:56;2.70;;;2.50;;
46284;SDS011;32018;59.182;18.148;2022-10-16T10:04:24;4.07;;;3.70;;
46284;SDS011;32018;59.182;18.148;2022-10-16T10:06:51;3.10;;;2.78;;
46284;SDS011;32018;59.182;18.148;2022-10-16T10:14:23;3.22;;;2.97;;
46284;SDS011;32018;59.182;18.148;2022-10-16T10:16:49;3.38;;;2.40;;
46284;SDS011;32018;59.182;18.148;2022-10-16T10:19:16;2.25;;;2.05;;
46284;SDS011;32018;59.182;18.148;2022-10-16T10:21:41;3.15;;;2.85;;
46284;SDS011;32018;59.182;18.148;2022-10-16T10:24:16;5.20;;;2.60;;
46284;SDS011;32018;59.182;18.148;2022-10-16T10:26:45;5.20;;;2.35;;
46284;SDS011;32018;59.182;18.148;2022-10-16T10:31:46;2.83;;;2.63;;
46284;SDS011;32018;59.182;18.148;2022-10-16T10:34:22;3.17;;;2.20;;
46284;SDS011;32018;59.182;18.148;2022-10-16T10:36:53;2.65;;;2.45;;
46284;SDS011;32018;59.182;18.148;2022-10-16T10:39:25;3.47;;;2.83;;
46284;SDS011;32018;59.182;18.148;2022-10-16T10:54:36;2.60;;;2.13;;
46284;SDS011;32018;59.182;18.148;2022-10-16T11:00:03;2.65;;;2.45;;
46284;SDS011;32018;59.182;18.148;2022-10-16T11:05:08;2.47;;;2.28;;
46284;SDS011;32018;59.182;18.148;2022-10-16T11:07:40;4.10;;;2.15;;
46284;SDS011;32018;59.182;18.148;2022-10-16T11:10:21;2.92;;;2.10;;
46284;SDS011;32018;59.182;18.148;2022-10-16T11:12:49;2.28;;;2.08;;
46284;SDS011;32018;59.182;18.148;2022-10-16T11:15:39;2.53;;;2.03;;
46284;SDS011;32018;59.182;18.148;2022-10-16T11:18:05;3.28;;;2.40;;
46284;SDS011;32018;59.182;18.148;2022-10-16T11:20:42;2.72;;;1.95;;
46284;SDS011;32018;59.182;18.148;2022-10-16T11:25:33;2.63;;;2.42;;
46284;SDS011;32018;59.182;18.148;2022-10-16T11:28:11;8.38;;;2.35;;
46284;SDS011;32018;59.182;18.148;2022-10-16T11:30:43;5.72;;;2.35;;
46284;SDS011;32018;59.182;18.148;2022-10-16T11:33:22;4.15;;;2.03;;
46284;SDS011;32018;59.182;18.148;2022-10-16T11:38:20;4.05;;;2.08;;
46284;SDS011;32018;59.182;18.148;2022-10-16T11:40:50;2.33;;;1.90;;
46284;SDS011;32018;59.182;18.148;2022-10-16T11:43:20;2.45;;;1.83;;
46284;SDS011;32018;59.182;18.148;2022-10-16T11:45:51;3.22;;;2.45;;
46284;SDS011;32018;59.182;18.148;2022-10-16T11:48:31;2.58;;;2.38;;
46284;SDS011;32018;59.182;18.148;2022-10-16T11:51:05;2.40;;;2.20;;
46284;SDS011;32018;59.182;18.148;2022-10-16T11:56:16;3.33;;;2.33;;
46284;SDS011;32018;59.182;18.148;2022-10-16T12:03:55;2.30;;;2.10;;
46284;SDS011;32018;59.182;18.148;2022-10-16T12:09:09;2.92;;;1.92;;
46284;SDS011;32018;59.182;18.148;2022-10-16T12:11:37;2.93;;;2.00;;
46284;SDS011;32018;59.182;18.148;2022-10-16T12:16:39;2.17;;;1.85;;
46284;SDS011;32018;59.182;18.148;2022-10-16T12:19:16;2.33;;;2.13;;
46284;SDS011;32018;59.182;18.148;2022-10-16T12:21:42;2.30;;;2.10;;
46284;SDS011;32018;59.182;18.148;2022-10-16T12:24:19;1.60;;;1.50;;
46284;SDS011;32018;59.182;18.148;2022-10-16T12:26:45;2.60;;;2.40;;
46284;SDS011;32018;59.182;18.148;2022-10-16T12:29:13;3.90;;;1.75;;
46284;SDS011;32018;59.182;18.148;2022-10-16T12:31:43;1.85;;;1.67;;
46284;SDS011;32018;59.182;18.148;2022-10-16T12:34:23;3.25;;;1.98;;
46284;SDS011;32018;59.182;18.148;2022-10-16T12:36:48;4.55;;;2.20;;
46284;SDS011;32018;59.182;18.148;2022-10-16T12:39:21;2.17;;;1.50;;
46284;SDS011;32018;59.182;18.148;2022-10-16T12:41:47;2.17;;;1.95;;
46284;SDS011;32018;59.182;18.148;2022-10-16T12:44:23;1.88;;;1.60;;
46284;SDS011;32018;59.182;18.148;2022-10-16T12:46:49;1.60;;;1.50;;
46284;SDS011;32018;59.182;18.148;2022-10-16T12:51:53;2.42;;;1.80;;
46284;SDS011;32018;59.182;18.148;2022-10-16T12:54:19;2.17;;;1.70;;
46284;SDS011;32018;59.182;18.148;2022-10-16T13:06:51;3.13;;;1.80;;
46284;SDS011;32018;59.182;18.148;2022-10-16T13:09:22;2.97;;;1.40;;
46284;SDS011;32018;59.182;18.148;2022-10-16T13:14:26;2.83;;;1.50;;
46284;SDS011;32018;59.182;18.148;2022-10-16T13:19:25;2.53;;;1.60;;
46284;SDS011;32018;59.182;18.148;2022-10-16T13:22:04;1.90;;;1.60;;
46284;SDS011;32018;59.182;18.148;2022-10-16T13:27:05;2.45;;;1.60;;
46284;SDS011;32018;59.182;18.148;2022-10-16T13:29:32;2.28;;;1.70;;
46284;SDS011;32018;59.182;18.148;2022-10-16T13:31:58;2.88;;;2.03;;
46284;SDS011;32018;59.182;18.148;2022-10-16T13:34:25;2.10;;;1.70;;
46284;SDS011;32018;59.182;18.148;2022-10-16T13:36:51;1.90;;;1.38;;
46284;SDS011;32018;59.182;18.148;2022-10-16T13:44:23;1.50;;;1.17;;
46284;SDS011;32018;59.182;18.148;2022-10-16T13:46:57;2.72;;;1.50;;
46284;SDS011;32018;59.182;18.148;2022-10-16T13:49:23;3.05;;;1.48;;
46284;SDS011;32018;59.182;18.148;2022-10-16T13:51:55;1.65;;;1.20;;
46284;SDS011;32018;59.182;18.148;2022-10-16T13:54:21;2.50;;;1.25;;
46284;SDS011;32018;59.182;18.148;2022-10-16T13:56:47;8.57;;;1.17;;
46284;SDS011;32018;59.182;18.148;2022-10-16T14:04:53;3.25;;;1.50;;
46284;SDS011;32018;59.182;18.148;2022-10-16T14:07:26;3.67;;;1.40;;
46284;SDS011;32018;59.182;18.148;2022-10-16T14:09:52;2.78;;;1.45;;
46284;SDS011;32018;59.182;18.148;2022-10-16T14:12:18;5.82;;;1.42;;
46284;SDS011;32018;59.182;18.148;2022-10-16T14:14:44;2.08;;;1.40;;
46284;SDS011;32018;59.182;18.148;2022-10-16T14:17:15;2.25;;;1.20;;
46284;SDS011;32018;59.182;18.148;2022-10-16T14:19:40;1.70;;;1.25;;
46284;SDS011;32018;59.182;18.148;2022-10-16T14:22:30;2.90;;;1.80;;
46284;SDS011;32018;59.182;18.148;2022-10-16T14:24:56;2.65;;;1.40;;
46284;SDS011;32018;59.182;18.148;2022-10-16T14:27:32;3.95;;;1.65;;
46284;SDS011;32018;59.182;18.148;2022-10-16T14:30:48;3.60;;;1.98;;
46284;SDS011;32018;59.182;18.148;2022-10-16T14:32:57;3.30;;;1.55;;
46284;SDS011;32018;59.182;18.148;2022-10-16T14:35:24;6.40;;;1.30;;
46284;SDS011;32018;59.182;18.148;2022-10-16T14:37:53;3.60;;;1.40;;
46284;SDS011;32018;59.182;18.148;2022-10-16T14:40:18;2.17;;;1.20;;
46284;SDS011;32018;59.182;18.148;2022-10-16T14:42:44;2.63;;;1.60;;
46284;SDS011;32018;59.182;18.148;2022-10-16T14:45:10;3.60;;;1.52;;
46284;SDS011;32018;59.182;18.148;2022-10-16T14:47:37;4.70;;;1.70;;
46284;SDS011;32018;59.182;18.148;2022-10-16T14:50:11;2.25;;;1.35;;
46284;SDS011;32018;59.182;18.148;2022-10-16T14:52:36;2.00;;;1.20;;
46284;SDS011;32018;59.182;18.148;2022-10-16T14:55:02;3.42;;;1.58;;
46284;SDS011;32018;59.182;18.148;2022-10-16T14:57:27;2.05;;;1.33;;
46284;SDS011;32018;59.182;18.148;2022-10-16T14:59:56;3.63;;;1.88;;
46284;SDS011;32018;59.182;18.148;2022-10-16T15:02:27;4.78;;;1.80;;
46284;SDS011;32018;59.182;18.148;2022-10-16T15:04:53;3.03;;;1.60;;
46284;SDS011;32018;59.182;18.148;2022-10-16T15:07:18;2.58;;;1.27;;
46284;SDS011;32018;59.182;18.148;2022-10-16T15:09:44;3.72;;;1.98;;
46284;SDS011;32018;59.182;18.148;2022-10-16T15:12:09;1.98;;;1.20;;
46284;SDS011;32018;59.182;18.148;2022-10-16T15:14:34;2.00;;;1.30;;
46284;SDS011;32018;59.182;18.148;2022-10-16T15:17:00;3.80;;;1.30;;
46284;SDS011;32018;59.182;18.148;2022-10-16T15:19:25;1.77;;;1.40;;
46284;SDS011;32018;59.182;18.148;2022-10-16T15:21:50;2.80;;;1.60;;
46284;SDS011;32018;59.182;18.148;2022-10-16T15:24:17;4.07;;;1.75;;
46284;SDS011;32018;59.182;18.148;2022-10-16T15:26:42;3.20;;;2.03;;
46284;SDS011;32018;59.182;18.148;2022-10-16T15:29:08;2.65;;;1.20;;
46284;SDS011;32018;59.182;18.148;2022-10-16T15:31:33;3.90;;;1.48;;
46284;SDS011;32018;59.182;18.148;2022-10-16T15:33:59;3.35;;;1.60;;
46284;SDS011;32018;59.182;18.148;2022-10-16T15:36:30;3.00;;;1.40;;
46284;SDS011;32018;59.182;18.148;2022-10-16T15:38:55;1.25;;;1.10;;
46284;SDS011;32018;59.182;18.148;2022-10-16T15:41:21;1.55;;;0.90;;
46284;SDS011;32018;59.182;18.148;2022-10-16T15:43:50;1.23;;;1.00;;
46284;SDS011;32018;59.182;18.148;2022-10-16T15:46:17;1.02;;;0.55;;
46284;SDS011;32018;59.182;18.148;2022-10-16T15:48:43;1.30;;;0.60;;
46284;SDS011;32018;59.182;18.148;2022-10-16T15:51:08;1.08;;;0.65;;
46284;SDS011;32018;59.182;18.148;2022-10-16T15:53:34;2.20;;;0.40;;
46284;SDS011;32018;59.182;18.148;2022-10-16T15:56:06;1.13;;;0.50;;
46284;SDS011;32018;59.182;18.148;2022-10-16T15:58:32;0.93;;;0.70;;
46284;SDS011;32018;59.182;18.148;2022-10-16T16:00:58;0.90;;;0.60;;
46284;SDS011;32018;59.182;18.148;2022-10-16T16:03:25;1.35;;;0.47;;
46284;SDS011;32018;59.182;18.148;2022-10-16T16:05:51;1.45;;;0.50;;
46284;SDS011;32018;59.182;18.148;2022-10-16T16:08:17;1.35;;;0.60;;
46284;SDS011;32018;59.182;18.148;2022-10-16T16:10:42;1.92;;;0.68;;
46284;SDS011;32018;59.182;18.148;2022-10-16T16:13:08;2.50;;;0.57;;
46284;SDS011;32018;59.182;18.148;2022-10-16T16:15:33;1.38;;;0.60;;
46284;SDS011;32018;59.182;18.148;2022-10-16T16:17:58;0.82;;;0.60;;
46284;SDS011;32018;59.182;18.148;2022-10-16T16:20:25;2.15;;;0.65;;
46284;SDS011;32018;59.182;18.148;2022-10-16T16:22:50;1.42;;;0.50;;
46284;SDS011;32018;59.182;18.148;2022-10-16T16:25:16;1.30;;;0.70;;
46284;SDS011;32018;59.182;18.148;2022-10-16T16:27:41;1.08;;;0.73;;